createdAt,value
2018-12-04T00:00:35.775Z,8.90
2018-12-04T00:03:05.294Z,8.90
2018-12-04T00:05:34.595Z,8.90
2018-12-04T00:08:03.497Z,9.00
2018-12-04T00:10:32.554Z,9.10
2018-12-04T00:13:02.166Z,9.10
2018-12-04T00:15:31.072Z,9.20
2018-12-04T00:18:02.197Z,9.20
2018-12-04T00:20:31.184Z,9.20
2018-12-04T00:23:00.096Z,9.30
2018-12-04T00:25:28.971Z,9.30
2018-12-04T00:27:57.966Z,9.40
2018-12-04T00:30:26.789Z,9.40
2018-12-04T00:32:55.727Z,9.40
2018-12-04T00:35:24.618Z,9.40
2018-12-04T00:37:53.485Z,9.50
2018-12-04T00:40:22.337Z,9.40
2018-12-04T00:42:51.202Z,9.50
2018-12-04T00:45:20.259Z,9.40
2018-12-04T00:47:49.215Z,9.50
2018-12-04T00:50:18.069Z,9.50
2018-12-04T00:52:46.922Z,9.50
2018-12-04T00:55:15.814Z,9.50
2018-12-04T00:57:45.528Z,9.50
2018-12-04T01:00:15.708Z,9.50
2018-12-04T01:02:44.599Z,9.50
2018-12-04T01:05:13.474Z,9.50
2018-12-04T01:07:42.343Z,9.60
2018-12-04T01:10:11.179Z,9.60
2018-12-04T01:12:40.075Z,9.60
2018-12-04T01:15:09.225Z,9.60
2018-12-04T01:17:38.099Z,9.50
2018-12-04T01:20:06.974Z,9.50
2018-12-04T01:22:35.816Z,9.50
2018-12-04T01:25:04.858Z,9.50
2018-12-04T01:27:33.723Z,9.40
2018-12-04T01:30:02.619Z,9.30
2018-12-04T01:32:31.513Z,9.30
2018-12-04T01:35:00.386Z,9.30
2018-12-04T01:37:29.265Z,9.20
2018-12-04T01:39:58.114Z,9.20
2018-12-04T01:42:28.196Z,9.20
2018-12-04T01:44:57.068Z,9.10
2018-12-04T01:47:25.935Z,9.10
2018-12-04T01:49:54.782Z,9.00
2018-12-04T01:52:23.671Z,9.00
2018-12-04T01:54:52.587Z,9.00
2018-12-04T01:57:22.776Z,8.90
2018-12-04T01:59:51.656Z,8.80
2018-12-04T02:02:20.518Z,8.80
2018-12-04T02:04:49.358Z,8.80
2018-12-04T02:07:18.270Z,8.80
2018-12-04T02:09:47.110Z,8.70
2018-12-04T02:12:15.974Z,8.70
2018-12-04T02:14:44.862Z,8.80
2018-12-04T02:17:13.740Z,8.80
2018-12-04T02:19:42.625Z,8.80
2018-12-04T02:22:11.481Z,8.80
2018-12-04T02:24:40.356Z,8.80
2018-12-04T02:27:09.207Z,8.90
2018-12-04T02:29:38.088Z,8.90
2018-12-04T02:32:06.948Z,8.90
2018-12-04T02:34:35.808Z,9.00
2018-12-04T02:37:04.694Z,9.00
2018-12-04T02:41:03.042Z,9.00
2018-12-04T02:43:31.911Z,9.00
2018-12-04T02:46:00.867Z,8.90
2018-12-04T02:48:30.993Z,8.80
2018-12-04T02:50:59.873Z,8.80
2018-12-04T02:53:28.808Z,8.80
2018-12-04T02:55:57.672Z,8.70
2018-12-04T02:58:26.555Z,8.70
2018-12-04T03:00:55.466Z,8.70
2018-12-04T03:03:24.373Z,8.80
2018-12-04T03:05:53.229Z,8.70
2018-12-04T03:08:22.093Z,8.70
2018-12-04T03:10:50.940Z,8.70
2018-12-04T03:13:19.808Z,8.80
2018-12-04T03:15:48.674Z,8.80
2018-12-04T03:18:17.565Z,8.70
2018-12-04T03:20:46.430Z,8.70
2018-12-04T03:23:15.282Z,8.70
2018-12-04T03:25:44.175Z,8.80
2018-12-04T03:28:13.026Z,8.70
2018-12-04T03:30:41.914Z,8.70
2018-12-04T03:33:10.821Z,8.70
2018-12-04T03:35:39.698Z,8.70
2018-12-04T03:38:08.615Z,8.70
2018-12-04T03:40:37.549Z,8.70
2018-12-04T03:43:06.401Z,8.70
2018-12-04T03:45:35.617Z,8.70
2018-12-04T03:48:04.640Z,8.70
2018-12-04T03:50:33.486Z,8.70
2018-12-04T03:53:02.373Z,8.70
2018-12-04T03:55:31.242Z,8.80
2018-12-04T03:58:00.117Z,8.80
2018-12-04T04:00:28.998Z,8.70
2018-12-04T04:02:57.858Z,8.70
2018-12-04T04:05:26.709Z,8.70
2018-12-04T04:07:55.600Z,8.70
2018-12-04T04:10:24.448Z,8.70
2018-12-04T04:12:53.577Z,8.70
2018-12-04T04:15:22.429Z,8.70
2018-12-04T04:17:51.303Z,8.60
2018-12-04T04:20:20.182Z,8.60
2018-12-04T04:22:49.060Z,8.60
2018-12-04T04:25:17.948Z,8.50
2018-12-04T04:27:46.839Z,8.40
2018-12-04T04:30:15.730Z,8.40
2018-12-04T04:32:44.655Z,8.40
2018-12-04T04:35:13.534Z,8.30
2018-12-04T04:37:43.710Z,8.30
2018-12-04T04:40:12.594Z,8.30
2018-12-04T04:42:41.489Z,8.20
2018-12-04T04:45:11.585Z,8.10
2018-12-04T04:47:40.461Z,8.20
2018-12-04T04:50:09.346Z,8.10
2018-12-04T04:52:38.189Z,8.00
2018-12-04T04:55:07.050Z,8.00
2018-12-04T04:57:35.927Z,8.00
2018-12-04T05:00:05.529Z,8.00
2018-12-04T05:02:34.421Z,8.00
2018-12-04T05:05:03.338Z,8.00
2018-12-04T05:07:32.325Z,8.00
2018-12-04T05:10:01.213Z,8.00
2018-12-04T05:12:31.358Z,8.00
2018-12-04T05:15:00.250Z,8.10
2018-12-04T05:17:29.120Z,8.00
2018-12-04T05:19:57.975Z,8.10
2018-12-04T05:22:26.943Z,8.10
2018-12-04T05:24:55.987Z,8.10
2018-12-04T05:27:24.962Z,8.10
2018-12-04T05:29:53.851Z,8.10
2018-12-04T05:32:22.763Z,8.10
2018-12-04T05:34:51.628Z,8.10
2018-12-04T05:37:20.510Z,8.10
2018-12-04T05:39:49.428Z,8.10
2018-12-04T05:42:18.297Z,8.10
2018-12-04T05:44:47.146Z,8.10
2018-12-04T05:47:16.001Z,8.10
2018-12-04T05:49:44.898Z,8.10
2018-12-04T05:52:13.791Z,8.10
2018-12-04T05:54:42.653Z,8.20
2018-12-04T05:57:13.945Z,8.20
2018-12-04T05:59:43.599Z,8.20
2018-12-04T06:02:12.480Z,8.20
2018-12-04T06:04:41.402Z,8.30
2018-12-04T06:07:10.271Z,8.30
2018-12-04T06:09:39.125Z,8.40
2018-12-04T06:12:08.071Z,8.40
2018-12-04T06:14:36.917Z,8.40
2018-12-04T06:17:05.773Z,8.40
2018-12-04T06:19:35.913Z,8.50
2018-12-04T06:22:04.787Z,8.50
2018-12-04T06:24:34.896Z,8.50
2018-12-04T06:27:03.882Z,8.40
2018-12-04T06:29:32.758Z,8.40
2018-12-04T06:32:01.657Z,8.40
2018-12-04T06:34:30.657Z,8.30
2018-12-04T06:36:59.629Z,8.30
2018-12-04T06:39:28.528Z,8.30
2018-12-04T06:41:57.419Z,8.20
2018-12-04T06:44:26.349Z,8.20
2018-12-04T06:46:55.197Z,8.30
2018-12-04T06:49:24.054Z,8.30
2018-12-04T06:51:53.025Z,8.30
2018-12-04T06:54:21.901Z,8.30
2018-12-04T06:56:50.934Z,8.30
2018-12-04T06:59:19.974Z,8.30
2018-12-04T07:01:48.840Z,8.30
2018-12-04T07:04:17.690Z,8.40
2018-12-04T07:06:46.589Z,8.40
2018-12-04T07:09:15.463Z,8.40
2018-12-04T07:11:44.336Z,8.40
2018-12-04T07:14:13.236Z,8.40
2018-12-04T07:16:42.089Z,8.40
2018-12-04T07:19:10.950Z,8.40
2018-12-04T07:21:39.865Z,8.40
2018-12-04T07:24:08.714Z,8.50
2018-12-04T07:26:39.330Z,8.50
2018-12-04T07:29:08.197Z,8.50
2018-12-04T07:31:38.300Z,8.60
2018-12-04T07:34:07.261Z,8.70
2018-12-04T07:36:36.231Z,8.70
2018-12-04T07:39:07.034Z,8.70
2018-12-04T07:41:35.937Z,8.80
2018-12-04T07:44:04.822Z,8.80
2018-12-04T07:46:33.689Z,8.80
2018-12-04T07:49:03.846Z,8.80
2018-12-04T07:51:32.863Z,8.70
2018-12-04T07:54:01.553Z,8.80
2018-12-04T07:56:30.411Z,8.80
2018-12-04T07:58:59.379Z,8.80
2018-12-04T08:01:28.215Z,8.80
2018-12-04T08:03:58.463Z,8.80
2018-12-04T08:06:27.356Z,8.80
2018-12-04T08:08:56.230Z,8.80
2018-12-04T08:11:25.113Z,8.80
2018-12-04T08:13:55.236Z,8.80
2018-12-04T08:16:25.457Z,8.80
2018-12-04T08:18:54.291Z,8.80
2018-12-04T08:21:23.142Z,8.80
2018-12-04T08:23:52.035Z,8.90
2018-12-04T08:26:20.936Z,9.00
2018-12-04T08:28:49.769Z,9.00
2018-12-04T08:31:21.137Z,9.10
2018-12-04T08:33:50.045Z,9.20
2018-12-04T08:36:18.915Z,9.20
2018-12-04T08:38:47.775Z,9.30
2018-12-04T08:41:16.712Z,9.30
2018-12-04T08:43:45.588Z,9.30
2018-12-04T08:46:14.553Z,9.30
2018-12-04T08:48:43.485Z,9.30
2018-12-04T08:51:12.416Z,9.30
2018-12-04T08:53:41.245Z,9.30
2018-12-04T08:56:10.215Z,9.20
2018-12-04T08:58:40.065Z,9.20
2018-12-04T09:01:08.900Z,9.20
2018-12-04T09:03:38.923Z,9.10
2018-12-04T09:06:12.978Z,9.10
2018-12-04T09:08:41.848Z,9.10
2018-12-04T09:11:10.673Z,9.20
2018-12-04T09:13:39.603Z,9.20
2018-12-04T09:16:08.441Z,9.20
2018-12-04T09:18:37.350Z,9.20
2018-12-04T09:21:07.425Z,9.20
2018-12-04T09:23:36.320Z,9.20
2018-12-04T09:26:05.153Z,9.20
2018-12-04T09:28:35.325Z,9.20
2018-12-04T09:31:04.161Z,9.20
2018-12-04T09:33:33.064Z,9.20
2018-12-04T09:36:01.903Z,9.20
2018-12-04T09:38:30.731Z,9.10
2018-12-04T09:41:00.770Z,9.10
2018-12-04T09:43:29.601Z,9.10
2018-12-04T09:45:58.472Z,9.00
2018-12-04T09:48:27.352Z,9.00
2018-12-04T09:50:56.227Z,9.00
2018-12-04T09:53:25.318Z,9.00
2018-12-04T09:55:54.010Z,9.00
2018-12-04T09:58:22.843Z,9.00
2018-12-04T10:00:53.082Z,8.90
2018-12-04T10:03:21.902Z,8.90
2018-12-04T10:05:50.741Z,8.90
2018-12-04T10:08:19.617Z,9.00
2018-12-04T10:10:48.452Z,9.00
2018-12-04T10:13:17.358Z,9.00
2018-12-04T10:15:46.218Z,9.00
2018-12-04T10:18:15.068Z,9.00
2018-12-04T10:20:43.886Z,9.00
2018-12-04T10:23:14.008Z,9.10
2018-12-04T10:25:49.593Z,9.10
2018-12-04T10:28:19.238Z,9.10
2018-12-04T10:31:19.019Z,9.10
2018-12-04T10:33:49.074Z,9.00
2018-12-04T10:36:17.916Z,9.10
2018-12-04T10:38:46.837Z,9.10
2018-12-04T10:41:15.705Z,9.10
2018-12-04T10:43:44.590Z,9.20
2018-12-04T10:46:13.432Z,9.20
2018-12-04T10:48:42.306Z,9.20
2018-12-04T10:51:12.437Z,9.20
2018-12-04T10:53:41.302Z,9.20
2018-12-04T10:56:10.137Z,9.30
2018-12-04T10:58:40.246Z,9.50
2018-12-04T11:01:14.639Z,9.60
2018-12-04T11:03:43.535Z,9.70
2018-12-04T11:06:12.421Z,9.80
2018-12-04T11:08:41.309Z,9.80
2018-12-04T11:11:10.194Z,9.90
2018-12-04T11:13:39.099Z,9.90
2018-12-04T11:16:07.930Z,9.90
2018-12-04T11:18:37.417Z,9.90
2018-12-04T11:21:08.067Z,9.90
2018-12-04T11:23:36.998Z,9.80
2018-12-04T11:26:05.946Z,9.70
2018-12-04T11:28:34.824Z,9.60
2018-12-04T11:31:03.686Z,9.60
2018-12-04T11:33:32.579Z,9.60
2018-12-04T11:36:01.443Z,9.60
2018-12-04T11:38:30.285Z,9.60
2018-12-04T11:41:00.507Z,9.50
2018-12-04T11:43:29.359Z,9.60
2018-12-04T11:45:58.218Z,9.60
2018-12-04T11:48:28.401Z,9.60
2018-12-04T11:51:00.156Z,9.60
2018-12-04T11:53:27.517Z,9.50
2018-12-04T11:55:56.418Z,9.50
2018-12-04T11:58:25.265Z,9.50
2018-12-04T12:00:54.146Z,9.50
2018-12-04T12:03:23.013Z,9.40
2018-12-04T12:05:51.830Z,9.30
2018-12-04T12:08:20.714Z,9.40
2018-12-04T12:10:49.582Z,9.40
2018-12-04T12:13:18.478Z,9.30
2018-12-04T12:15:47.325Z,9.30
2018-12-04T12:18:16.159Z,9.30
2018-12-04T12:20:45.007Z,9.30
2018-12-04T12:23:13.875Z,9.20
2018-12-04T12:25:42.729Z,9.20
2018-12-04T12:28:12.740Z,9.20
2018-12-04T12:30:41.610Z,9.10
2018-12-04T12:33:10.468Z,9.10
2018-12-04T12:35:39.341Z,9.00
2018-12-04T12:38:09.463Z,9.00
2018-12-04T12:40:38.330Z,9.00
2018-12-04T12:43:07.171Z,9.00
2018-12-04T12:45:37.658Z,9.00
2018-12-04T12:48:06.523Z,9.00
2018-12-04T12:50:35.401Z,9.10
2018-12-04T12:53:05.892Z,9.00
2018-12-04T12:55:34.748Z,9.10
2018-12-04T12:58:04.909Z,9.10
2018-12-04T13:00:33.981Z,9.10
2018-12-04T13:03:02.844Z,9.10
2018-12-04T13:05:31.730Z,9.00
2018-12-04T13:08:03.176Z,9.00
2018-12-04T13:10:32.079Z,9.00
2018-12-04T13:13:00.967Z,9.00
2018-12-04T13:15:29.938Z,8.90
2018-12-04T13:17:58.827Z,8.90
2018-12-04T13:21:57.365Z,8.90
2018-12-04T13:24:26.265Z,8.90
2018-12-04T13:26:55.214Z,8.80
2018-12-04T13:29:24.166Z,8.80
2018-12-04T13:31:54.434Z,8.70
2018-12-04T13:34:23.446Z,8.70
2018-12-04T13:36:52.440Z,8.70
2018-12-04T13:39:21.358Z,8.70
2018-12-04T13:41:50.670Z,8.60
2018-12-04T13:44:19.713Z,8.60
2018-12-04T13:46:49.762Z,8.50
2018-12-04T13:49:18.652Z,8.50
2018-12-04T13:51:47.498Z,8.50
2018-12-04T13:54:17.593Z,8.50
2018-12-04T13:56:46.450Z,8.50
2018-12-04T13:59:15.332Z,8.50
2018-12-04T14:01:44.361Z,8.50
2018-12-04T14:04:16.952Z,8.40
2018-12-04T14:06:42.321Z,8.40
2018-12-04T14:09:11.198Z,8.40
2018-12-04T14:11:40.089Z,8.30
2018-12-04T14:14:09.313Z,8.30
2018-12-04T14:16:39.452Z,8.30
2018-12-04T14:19:09.639Z,8.20
2018-12-04T14:21:38.488Z,8.20
2018-12-04T14:24:07.459Z,8.20
2018-12-04T14:26:37.801Z,8.20
2018-12-04T14:31:30.189Z,8.20
2018-12-04T14:33:59.901Z,8.20
2018-12-04T14:36:29.546Z,8.20
2018-12-04T14:38:59.195Z,8.20
2018-12-04T14:41:30.071Z,8.20
2018-12-04T14:43:59.728Z,8.20
2018-12-04T14:46:29.342Z,8.20
2018-12-04T14:48:58.984Z,8.20
2018-12-04T14:51:28.607Z,8.20
2018-12-04T14:53:58.282Z,8.20
2018-12-04T14:56:27.926Z,8.20
2018-12-04T14:58:57.582Z,8.20
2018-12-04T15:01:27.250Z,8.20
2018-12-04T15:03:57.127Z,8.20
2018-12-04T15:06:26.785Z,8.20
2018-12-04T15:08:57.687Z,8.10
2018-12-04T15:11:28.533Z,8.10
2018-12-04T15:13:58.191Z,8.10
2018-12-04T15:16:27.914Z,8.10
2018-12-04T15:18:58.808Z,8.10
2018-12-04T15:21:28.465Z,8.10
2018-12-04T15:23:58.173Z,8.10
2018-12-04T15:26:27.884Z,8.10
2018-12-04T15:28:57.601Z,8.00
2018-12-04T15:31:28.688Z,8.00
2018-12-04T15:33:58.240Z,8.00
2018-12-04T15:36:30.382Z,8.00
2018-12-04T15:39:01.355Z,8.00
2018-12-04T15:41:30.958Z,7.90
2018-12-04T15:44:01.867Z,7.90
2018-12-04T15:46:31.690Z,7.80
2018-12-04T15:49:01.472Z,7.70
2018-12-04T15:51:31.169Z,7.70
2018-12-04T15:54:00.836Z,7.60
2018-12-04T15:56:30.561Z,7.60
2018-12-04T15:59:00.251Z,7.50
2018-12-04T16:01:32.684Z,7.50
2018-12-04T16:04:02.446Z,7.40
2018-12-04T16:06:33.434Z,7.40
2018-12-04T16:09:03.133Z,7.40
2018-12-04T16:11:32.811Z,7.40
2018-12-04T16:14:04.975Z,7.40
2018-12-04T16:16:34.705Z,7.30
2018-12-04T16:19:04.377Z,7.30
2018-12-04T16:21:36.619Z,7.20
2018-12-04T16:24:06.293Z,7.20
2018-12-04T16:26:35.933Z,7.20
2018-12-04T16:29:06.851Z,7.20
2018-12-04T16:31:36.484Z,7.10
2018-12-04T16:34:07.500Z,7.10
2018-12-04T16:36:37.149Z,7.10
2018-12-04T16:39:08.694Z,7.10
2018-12-04T16:41:38.404Z,7.10
2018-12-04T16:44:08.255Z,7.10
2018-12-04T16:46:40.451Z,7.00
2018-12-04T16:49:10.263Z,7.00
2018-12-04T16:51:41.264Z,7.00
2018-12-04T16:54:10.955Z,7.00
2018-12-04T16:56:40.674Z,7.00
2018-12-04T16:59:10.898Z,7.00
2018-12-04T17:01:42.039Z,7.10
2018-12-04T17:04:11.688Z,7.10
2018-12-04T17:06:41.422Z,7.20
2018-12-04T17:09:13.704Z,7.20
2018-12-04T17:11:44.443Z,7.30
2018-12-04T17:14:15.666Z,7.30
2018-12-04T17:16:45.385Z,7.30
2018-12-04T17:19:15.020Z,7.40
2018-12-04T17:21:45.971Z,7.40
2018-12-04T17:24:16.951Z,7.40
2018-12-04T17:26:46.763Z,7.40
2018-12-04T17:29:16.471Z,7.40
2018-12-04T17:31:46.136Z,7.40
2018-12-04T17:34:15.797Z,7.40
2018-12-04T17:36:46.867Z,7.40
2018-12-04T17:39:16.489Z,7.40
2018-12-04T17:41:46.189Z,7.40
2018-12-04T17:44:15.906Z,7.40
2018-12-04T17:46:45.642Z,7.40
2018-12-04T17:49:15.406Z,7.40
2018-12-04T17:51:46.337Z,7.50
2018-12-04T17:54:15.958Z,7.50
2018-12-04T17:56:45.638Z,7.50
2018-12-04T17:59:15.638Z,7.60
2018-12-04T18:01:45.352Z,7.60
2018-12-04T18:04:15.059Z,7.50
2018-12-04T18:06:44.713Z,7.50
2018-12-04T18:09:15.715Z,7.40
2018-12-04T18:11:45.356Z,7.40
2018-12-04T18:14:14.970Z,7.40
2018-12-04T18:16:45.860Z,7.40
2018-12-04T18:19:15.551Z,7.60
2018-12-04T18:21:46.397Z,7.50
2018-12-04T18:24:17.438Z,7.50
2018-12-04T18:26:47.106Z,7.50
2018-12-04T18:29:17.256Z,7.50
2018-12-04T18:31:46.931Z,7.50
2018-12-04T18:34:16.840Z,7.50
2018-12-04T18:36:46.536Z,7.50
2018-12-04T18:39:17.454Z,7.50
2018-12-04T18:41:48.398Z,7.40
2018-12-04T18:44:18.095Z,7.40
2018-12-04T18:46:49.041Z,7.40
2018-12-04T18:49:19.980Z,7.40
2018-12-04T18:51:51.563Z,7.40
2018-12-04T18:54:21.216Z,7.50
2018-12-04T18:56:51.261Z,7.50
2018-12-04T18:59:20.936Z,7.50
2018-12-04T19:01:50.634Z,7.40
2018-12-04T19:04:20.363Z,7.30
2018-12-04T19:06:50.162Z,7.30
2018-12-04T19:09:20.950Z,7.30
2018-12-04T19:11:50.774Z,7.20
2018-12-04T19:14:20.461Z,7.20
2018-12-04T19:16:51.398Z,7.20
2018-12-04T19:19:22.321Z,7.20
2018-12-04T19:21:51.945Z,7.20
2018-12-04T19:24:22.286Z,7.20
2018-12-04T19:26:51.921Z,7.20
2018-12-04T19:29:21.614Z,7.20
2018-12-04T19:31:51.287Z,7.20
2018-12-04T19:34:20.989Z,7.10
2018-12-04T19:36:50.651Z,7.10
2018-12-04T19:39:20.333Z,7.00
2018-12-04T19:41:50.041Z,7.00
2018-12-04T19:44:19.664Z,7.00
2018-12-04T19:46:49.345Z,6.90
2018-12-04T19:49:20.284Z,6.90
2018-12-04T19:51:50.385Z,6.80
2018-12-04T19:54:19.996Z,6.80
2018-12-04T19:56:49.695Z,6.70
2018-12-04T19:59:19.406Z,6.70
2018-12-04T20:01:50.270Z,6.70
2018-12-04T20:04:19.885Z,6.70
2018-12-04T20:06:49.515Z,6.60
2018-12-04T20:09:19.186Z,6.60
2018-12-04T20:11:48.881Z,6.60
2018-12-04T20:14:18.505Z,6.60
2018-12-04T20:16:50.688Z,6.60
2018-12-04T20:19:20.323Z,6.60
2018-12-04T20:21:49.959Z,6.50
2018-12-04T20:24:19.676Z,6.50
2018-12-04T20:26:49.298Z,6.50
2018-12-04T20:29:18.975Z,6.50
2018-12-04T20:31:48.619Z,6.50
2018-12-04T20:34:18.423Z,6.50
2018-12-04T20:36:48.180Z,6.50
2018-12-04T20:39:17.829Z,6.50
2018-12-04T20:41:47.481Z,6.50
2018-12-04T20:44:18.580Z,6.50
2018-12-04T20:46:49.586Z,6.40
2018-12-04T20:49:19.295Z,6.40
2018-12-04T20:51:49.034Z,6.40
2018-12-04T20:54:18.684Z,6.40
2018-12-04T20:56:48.342Z,6.40
2018-12-04T20:59:17.990Z,6.50
2018-12-04T21:01:47.838Z,6.50
2018-12-04T21:04:18.817Z,6.50
2018-12-04T21:06:49.830Z,6.50
2018-12-04T21:09:19.567Z,6.50
2018-12-04T21:11:49.195Z,6.50
2018-12-04T21:14:18.874Z,6.50
2018-12-04T21:16:48.519Z,6.50
2018-12-04T21:19:18.503Z,6.50
2018-12-04T21:21:48.220Z,6.50
2018-12-04T21:24:19.190Z,6.60
2018-12-04T21:26:48.901Z,6.60
2018-12-04T21:29:25.264Z,6.60
2018-12-04T21:32:01.789Z,6.60
2018-12-04T21:34:38.094Z,6.60
2018-12-04T21:37:13.069Z,6.60
2018-12-04T21:39:49.383Z,6.60
2018-12-04T21:42:25.858Z,6.60
2018-12-04T21:45:00.966Z,6.70
2018-12-04T21:47:38.952Z,6.70
2018-12-04T21:50:09.780Z,6.70
2018-12-04T21:52:39.499Z,6.70
2018-12-04T21:55:09.172Z,6.80
2018-12-04T21:57:39.114Z,6.80
2018-12-04T22:00:08.794Z,6.80
2018-12-04T22:02:38.389Z,6.90
2018-12-04T22:05:08.204Z,6.90
2018-12-04T22:07:39.371Z,6.90
2018-12-04T22:10:09.664Z,6.90
2018-12-04T22:12:39.456Z,6.90
2018-12-04T22:15:09.122Z,6.90
2018-12-04T22:17:38.873Z,6.90
2018-12-04T22:20:08.594Z,6.90
2018-12-04T22:22:38.432Z,6.90
2018-12-04T22:25:08.196Z,6.80
2018-12-04T22:27:37.850Z,6.80
2018-12-04T22:30:08.119Z,6.80
2018-12-04T22:32:40.240Z,6.80
2018-12-04T22:35:09.963Z,6.80
2018-12-04T22:37:39.666Z,6.70
2018-12-04T22:40:10.687Z,6.60
2018-12-04T22:42:41.974Z,6.60
2018-12-04T22:45:17.045Z,6.50
2018-12-04T22:47:46.747Z,6.50
2018-12-04T22:50:16.387Z,6.40
2018-12-04T22:52:46.094Z,6.40
2018-12-04T22:55:15.781Z,6.30
2018-12-04T22:57:45.387Z,6.30
2018-12-04T23:00:23.296Z,6.20
2018-12-04T23:02:52.922Z,6.20
2018-12-04T23:05:22.541Z,6.10
2018-12-04T23:07:52.255Z,6.10
2018-12-04T23:10:21.965Z,6.10
2018-12-04T23:12:52.491Z,6.10
2018-12-04T23:15:23.410Z,6.10
2018-12-04T23:17:52.999Z,6.00
2018-12-04T23:20:22.641Z,6.00
2018-12-04T23:22:53.564Z,6.00
2018-12-04T23:25:23.182Z,5.90
2018-12-04T23:27:53.310Z,5.90
2018-12-04T23:30:24.241Z,5.90
2018-12-04T23:32:54.968Z,5.90
2018-12-04T23:35:24.572Z,5.90
2018-12-04T23:37:54.255Z,5.90
2018-12-04T23:40:23.901Z,5.90
2018-12-04T23:42:53.517Z,5.90
2018-12-04T23:45:23.264Z,5.90
2018-12-04T23:47:52.873Z,5.90
2018-12-04T23:50:23.172Z,5.90
2018-12-04T23:52:52.821Z,5.90
2018-12-04T23:55:23.589Z,5.90
2018-12-04T23:57:53.265Z,5.90
